Time;durP1;ratioP1;P1;durP2;ratioP2;P2;SDS_P1;SDS_P2;PMS_P1;PMS_P2;Temp;Humidity;BMP_temperature;BMP_pressure;BME280_temperature;BME280_humidity;BME280_pressure;Samples;Min_cycle;Max_cycle;Signal;HPM_P1;HPM_P2
2023/04/14 00:00:05;;;;;;;20.90;15.20;;;;;;;8.76;100.00;99386.88;177497;1265;46091;-85
2023/04/14 00:04:28;;;;;;;22.70;16.30;;;;;;;8.79;100.00;99389.78;176797;1266;46117;-86
2023/04/14 00:08:31;;;;;;;22.50;13.70;;;;;;;8.81;100.00;99389.29;176506;1263;46119;-85
2023/04/14 00:12:35;;;;;;;26.60;16.00;;;;;;;8.71;100.00;99393.91;176636;1264;58359;-87
2023/04/14 00:16:38;;;;;;;13.10;10.70;;;;;;;8.65;100.00;99394.54;176526;1263;46052;-85
2023/04/14 00:20:42;;;;;;;13.60;8.40;;;;;;;8.57;100.00;99393.67;176501;1265;46151;-86
2023/04/14 00:24:45;;;;;;;10.00;7.30;;;;;;;8.54;100.00;99390.45;176302;1263;46030;-85
2023/04/14 00:28:48;;;;;;;6.10;3.40;;;;;;;8.51;100.00;99383.75;176831;1265;46146;-86
2023/04/14 00:32:52;;;;;;;8.00;3.40;;;;;;;8.44;100.00;99382.23;176454;1265;58397;-85
2023/04/14 00:36:55;;;;;;;9.20;5.30;;;;;;;8.40;100.00;99377.90;176058;1265;46114;-85
2023/04/14 00:40:59;;;;;;;4.40;3.00;;;;;;;8.31;100.00;99377.17;176730;1264;46116;-85
2023/04/14 00:45:02;;;;;;;6.50;4.40;;;;;;;8.25;100.00;99374.89;176583;1265;45998;-85
2023/04/14 00:49:06;;;;;;;4.00;3.60;;;;;;;8.26;100.00;99372.67;176875;1265;46120;-86
2023/04/14 00:53:11;;;;;;;8.50;4.10;;;;;;;8.21;100.00;99366.70;176519;1265;59629;-87
2023/04/14 00:57:15;;;;;;;7.30;5.10;;;;;;;8.13;100.00;99361.89;176962;1264;46063;-86
2023/04/14 01:01:19;;;;;;;5.00;4.20;;;;;;;8.07;100.00;99361.55;176415;1264;46097;-86
2023/04/14 01:05:23;;;;;;;5.80;5.20;;;;;;;8.00;100.00;99359.84;176927;1263;46021;-87
2023/04/14 01:09:26;;;;;;;7.60;4.60;;;;;;;8.06;100.00;99361.50;176629;1265;46209;-85
2023/04/14 01:14:03;;;;;;;4.10;3.70;;;;;;;8.12;100.00;99358.97;176686;1265;57966;-85
2023/04/14 01:18:20;;;;;;;9.30;5.60;;;;;;;8.15;100.00;99366.48;176460;1265;46120;-86
2023/04/14 01:22:30;;;;;;;5.60;4.10;;;;;;;8.17;100.00;99360.73;176662;1267;46144;-85
2023/04/14 01:26:34;;;;;;;5.50;4.10;;;;;;;8.25;100.00;99355.78;176558;1264;46234;-85
2023/04/14 01:30:58;;;;;;;11.40;4.00;;;;;;;8.29;100.00;99345.17;176703;1263;44490;-86
2023/04/14 01:35:16;;;;;;;6.90;3.70;;;;;;;8.26;100.00;99338.75;176784;1264;59647;-85
2023/04/14 01:39:23;;;;;;;3.50;2.80;;;;;;;8.27;100.00;99352.59;177408;1265;46008;-85
2023/04/14 01:43:29;;;;;;;5.30;3.40;;;;;;;8.37;100.00;99360.77;177400;1267;46017;-85
2023/04/14 01:47:35;;;;;;;5.20;3.60;;;;;;;8.51;100.00;99361.56;176705;1266;46130;-86
2023/04/14 01:51:42;;;;;;;5.30;4.40;;;;;;;8.61;100.00;99360.11;176888;1265;46424;-85
2023/04/14 01:55:48;;;;;;;6.90;5.20;;;;;;;8.65;100.00;99348.98;176404;1270;59063;-84
2023/04/14 01:59:56;;;;;;;6.10;5.50;;;;;;;8.70;100.00;99354.55;176782;1263;46008;-86
2023/04/14 02:04:02;;;;;;;6.40;4.90;;;;;;;8.75;100.00;99344.07;176929;1265;46143;-86
2023/04/14 02:08:07;;;;;;;;;;;;;;;8.76;100.00;99337.96;177070;1264;46021;-86
2023/04/14 02:12:11;;;;;;;8.80;6.60;;;;;;;8.75;100.00;99329.39;176841;1265;45934;-85
2023/04/14 02:16:16;;;;;;;9.80;7.00;;;;;;;8.75;100.00;99332.72;176736;1267;58301;-86
2023/04/14 02:20:21;;;;;;;7.20;6.50;;;;;;;8.77;100.00;99326.06;176588;1266;46202;-84
2023/04/14 02:24:24;;;;;;;8.20;7.20;;;;;;;8.72;100.00;99323.58;176727;1265;46137;-86
2023/04/14 02:28:31;;;;;;;8.10;5.70;;;;;;;8.70;100.00;99324.52;176249;1266;46120;-86
2023/04/14 02:32:35;;;;;;;9.00;6.50;;;;;;;8.60;100.00;99321.88;176580;1265;45989;-86
2023/04/14 02:36:45;;;;;;;8.70;6.50;;;;;;;8.53;100.00;99313.91;177418;1266;58644;-85
2023/04/14 02:40:49;;;;;;;7.80;5.90;;;;;;;8.49;100.00;99313.11;176908;1265;46194;-85
2023/04/14 02:45:05;;;;;;;6.70;5.60;;;;;;;8.42;100.00;99309.56;176525;1265;46017;-85
2023/04/14 03:09:22;;;;;;;8.20;5.60;;;;;;;8.62;100.00;99316.89;180650;1259;44316;31
2023/04/14 03:14:11;;;;;;;7.90;6.20;;;;;;;8.69;100.00;99314.27;180197;1263;85625;-75
2023/04/14 03:18:31;;;;;;;7.20;6.10;;;;;;;8.76;100.00;99307.70;180124;1260;44329;31
2023/04/14 03:28:46;;;;;;;;;;;;;;;;;;;;;
2023/04/14 04:07:53;;;;;;;6.80;6.20;;;;;;;8.46;100.00;99282.11;179023;1260;44655;31
2023/04/14 04:12:18;;;;;;;11.70;7.30;;;;;;;8.49;100.00;99278.12;179606;1267;58293;-86
2023/04/14 04:16:26;;;;;;;11.50;6.80;;;;;;;8.45;100.00;99278.58;180295;1267;44336;-87
2023/04/14 04:20:31;;;;;;;15.50;7.70;;;;;;;8.49;100.00;99269.71;180070;1267;44167;-87
2023/04/14 04:24:37;;;;;;;12.10;7.20;;;;;;;8.56;100.00;99269.86;180396;1267;43902;-86
2023/04/14 04:28:40;;;;;;;15.80;7.40;;;;;;;8.67;100.00;99267.81;180354;1266;44051;-86
2023/04/14 04:32:44;;;;;;;9.40;8.00;;;;;;;8.53;100.00;99255.67;180319;1267;58993;-85
2023/04/14 04:36:49;;;;;;;11.60;8.80;;;;;;;8.34;100.00;99243.92;180355;1267;43841;-85
2023/04/14 04:40:52;;;;;;;22.40;10.80;;;;;;;8.35;100.00;99260.41;180438;1267;43973;-86
2023/04/14 04:44:56;;;;;;;14.00;8.30;;;;;;;8.51;100.00;99262.71;180085;1267;44176;-86
2023/04/14 04:48:59;;;;;;;10.90;7.70;;;;;;;8.73;100.00;99267.14;180352;1267;43836;-86
2023/04/14 04:53:03;;;;;;;13.30;10.20;;;;;;;8.93;100.00;99273.45;180218;1267;58277;-86
2023/04/14 04:57:06;;;;;;;13.60;8.20;;;;;;;9.08;100.00;99274.59;180320;1267;44123;-86
2023/04/14 05:01:10;;;;;;;11.90;8.40;;;;;;;9.23;100.00;99269.48;180260;1267;44128;-86
2023/04/14 05:05:13;;;;;;;17.50;12.80;;;;;;;9.33;100.00;99267.91;180044;1267;43920;-86
2023/04/14 05:09:17;;;;;;;15.70;12.60;;;;;;;9.38;100.00;99263.54;180063;1266;43797;-85
2023/04/14 05:13:21;;;;;;;14.20;12.10;;;;;;;9.44;100.00;99266.48;179975;1267;60523;-85
2023/04/14 05:17:25;;;;;;;15.30;10.20;;;;;;;9.49;100.00;99268.67;180054;1267;44181;-86
2023/04/14 05:21:28;;;;;;;11.80;9.20;;;;;;;9.48;100.00;99266.63;180301;1267;44008;-85
2023/04/14 05:25:31;;;;;;;13.20;11.30;;;;;;;9.42;100.00;99276.98;180321;1266;43782;-86
2023/04/14 05:29:35;;;;;;;11.90;8.80;;;;;;;9.42;100.00;99272.69;179996;1267;43880;-86
2023/04/14 05:33:38;;;;;;;11.90;10.60;;;;;;;9.45;100.00;99272.44;180276;1267;58132;-86
2023/04/14 05:37:42;;;;;;;17.80;13.00;;;;;;;9.57;100.00;99266.89;180122;1267;44226;-86
2023/04/14 05:41:45;;;;;;;13.80;10.20;;;;;;;9.66;100.00;99266.61;180095;1267;43907;-85
2023/04/14 05:45:49;;;;;;;12.90;10.60;;;;;;;9.73;100.00;99266.82;180156;1267;44029;-87
2023/04/14 05:49:52;;;;;;;24.20;13.20;;;;;;;9.79;100.00;99274.58;180181;1267;43905;-88
2023/04/14 05:53:55;;;;;;;14.30;9.80;;;;;;;9.80;100.00;99268.09;180242;1267;59484;-85
2023/04/14 05:57:58;;;;;;;16.70;11.70;;;;;;;9.84;100.00;99262.27;180143;1267;44362;-87
2023/04/14 06:02:05;;;;;;;15.40;12.10;;;;;;;9.87;100.00;99263.39;180333;1267;44054;-86
2023/04/14 06:06:09;;;;;;;16.90;11.50;;;;;;;9.90;100.00;99264.36;180219;1267;44016;-87
2023/04/14 06:10:12;;;;;;;20.40;14.00;;;;;;;9.95;100.00;99266.13;180323;1267;44257;-88
2023/04/14 06:14:16;;;;;;;17.60;13.80;;;;;;;10.05;100.00;99261.34;180233;1266;58421;-86
2023/04/14 06:18:21;;;;;;;16.90;12.20;;;;;;;10.13;100.00;99259.33;180272;1267;44141;-86
2023/04/14 06:22:27;;;;;;;16.20;11.20;;;;;;;10.25;100.00;99260.54;180244;1267;43875;-85
2023/04/14 06:26:31;;;;;;;17.10;13.50;;;;;;;10.26;100.00;99257.39;180267;1267;44072;-87
2023/04/14 06:30:35;;;;;;;15.80;11.20;;;;;;;10.12;100.00;99260.19;180466;1267;43970;-87
2023/04/14 06:34:38;;;;;;;17.80;12.70;;;;;;;10.04;100.00;99255.27;180352;1267;59649;-87
2023/04/14 06:38:41;;;;;;;16.30;12.00;;;;;;;10.02;100.00;99251.34;180308;1267;43788;-86
2023/04/14 06:42:45;;;;;;;15.00;12.40;;;;;;;9.98;100.00;99247.84;180392;1267;44850;-88
2023/04/14 06:46:48;;;;;;;15.00;11.60;;;;;;;9.88;100.00;99241.73;180260;1267;43871;-87
2023/04/14 06:50:55;;;;;;;18.30;12.60;;;;;;;9.90;100.00;99235.30;179911;1267;44064;-88
2023/04/14 06:54:59;;;;;;;12.70;11.20;;;;;;;9.78;100.00;99234.67;180125;1267;57951;-87
2023/04/14 06:59:02;;;;;;;14.60;11.60;;;;;;;9.80;100.00;99230.61;180234;1267;44074;-89
2023/04/14 07:03:06;;;;;;;17.00;11.20;;;;;;;9.73;100.00;99223.27;180372;1267;44101;-89
2023/04/14 07:07:09;;;;;;;17.30;13.50;;;;;;;9.68;100.00;99216.66;180170;1267;44261;-87
2023/04/14 07:11:13;;;;;;;18.00;11.80;;;;;;;9.66;100.00;99212.80;180302;1267;43798;-89
2023/04/14 07:15:17;;;;;;;17.10;13.30;;;;;;;9.66;100.00;99216.55;180323;1267;59627;-89
2023/04/14 07:19:20;;;;;;;19.10;13.70;;;;;;;9.57;100.00;99216.98;180303;1267;43937;-90
2023/04/14 07:23:24;;;;;;;20.80;15.10;;;;;;;9.55;100.00;99215.42;180300;1267;44125;-89
2023/04/14 07:27:27;;;;;;;20.50;14.40;;;;;;;9.56;100.00;99215.98;180196;1267;43781;-89
2023/04/14 07:31:33;;;;;;;25.40;15.80;;;;;;;9.54;100.00;99222.39;180344;1267;43762;-88
2023/04/14 07:35:37;;;;;;;22.50;15.30;;;;;;;9.57;100.00;99226.20;180203;1267;58993;-89
2023/04/14 07:39:50;;;;;;;24.90;16.70;;;;;;;9.55;100.00;99226.16;180349;1267;44428;-89
2023/04/14 07:43:57;;;;;;;17.40;13.50;;;;;;;9.65;100.00;99226.21;180195;1267;43801;-88
2023/04/14 07:48:01;;;;;;;23.90;15.60;;;;;;;9.62;100.00;99220.77;180297;1267;44176;-88
2023/04/14 07:52:05;;;;;;;25.20;15.10;;;;;;;9.60;100.00;99209.31;180215;1268;44027;-88
2023/04/14 07:56:08;;;;;;;24.90;17.10;;;;;;;9.57;100.00;99211.53;180328;1267;58397;-89
2023/04/14 08:00:12;;;;;;;18.50;14.80;;;;;;;9.51;100.00;99206.44;180091;1267;44135;-86
2023/04/14 08:04:16;;;;;;;20.40;16.10;;;;;;;9.50;100.00;99207.70;180292;1267;43818;-88
2023/04/14 08:08:20;;;;;;;20.20;15.80;;;;;;;9.57;100.00;99208.65;180221;1268;43807;-88
2023/04/14 08:12:23;;;;;;;19.50;14.30;;;;;;;9.66;100.00;99208.04;180401;1267;43892;-88
2023/04/14 08:16:27;;;;;;;25.40;16.70;;;;;;;9.63;100.00;99200.86;180238;1267;59770;-89
2023/04/14 08:20:31;;;;;;;19.40;13.40;;;;;;;9.57;100.00;99194.88;180319;1267;44112;-88
2023/04/14 08:24:34;;;;;;;21.30;17.50;;;;;;;9.57;100.00;99188.11;180312;1266;44110;-89
2023/04/14 08:28:40;;;;;;;19.10;13.60;;;;;;;9.48;100.00;99179.23;180378;1267;43991;-89
2023/04/14 08:32:44;;;;;;;21.80;16.30;;;;;;;9.45;100.00;99169.84;180144;1267;44069;-88
2023/04/14 08:36:47;;;;;;;15.70;12.60;;;;;;;9.55;100.00;99159.30;180217;1267;58477;-87
2023/04/14 08:40:55;;;;;;;20.60;16.00;;;;;;;9.59;100.00;99159.42;180216;1267;43839;-87
2023/04/14 08:44:59;;;;;;;25.80;16.80;;;;;;;9.69;100.00;99161.00;180256;1267;44005;-87
2023/04/14 08:49:06;;;;;;;17.50;13.20;;;;;;;9.71;100.00;99161.46;180266;1268;44053;-89
2023/04/14 08:53:12;;;;;;;22.30;14.30;;;;;;;9.72;100.00;99159.79;180374;1267;44313;-89
2023/04/14 08:57:19;;;;;;;17.00;14.80;;;;;;;9.86;100.00;99157.75;180396;1266;59663;-89
2023/04/14 09:01:23;;;;;;;16.20;12.20;;;;;;;10.08;100.00;99163.41;180358;1267;43734;-87
2023/04/14 09:05:28;;;;;;;17.90;13.90;;;;;;;10.17;100.00;99159.89;180210;1267;44134;-88
2023/04/14 09:09:31;;;;;;;17.80;13.90;;;;;;;10.10;100.00;99158.23;180238;1267;44038;-89
2023/04/14 09:13:36;;;;;;;21.90;15.80;;;;;;;10.16;100.00;99158.95;180303;1266;44067;-88
2023/04/14 09:17:40;;;;;;;23.70;14.70;;;;;;;10.32;100.00;99162.73;180121;1267;60242;-88
2023/04/14 09:21:43;;;;;;;19.00;14.60;;;;;;;10.42;100.00;99169.15;179926;1266;44284;-89
2023/04/14 09:25:56;;;;;;;21.00;15.60;;;;;;;10.45;100.00;99169.21;180209;1266;43883;-87
2023/04/14 09:30:00;;;;;;;20.90;15.50;;;;;;;10.32;100.00;99170.27;180389;1267;44224;-89
2023/04/14 09:34:13;;;;;;;24.30;18.30;;;;;;;10.35;100.00;99170.20;180199;1268;43828;-88
2023/04/14 09:38:37;;;;;;;22.20;16.60;;;;;;;10.50;100.00;99168.77;180098;1267;59296;-87
2023/04/14 09:42:41;;;;;;;22.10;15.70;;;;;;;10.70;100.00;99177.64;180120;1269;43856;-87
2023/04/14 09:47:01;;;;;;;24.50;17.40;;;;;;;10.77;100.00;99178.60;179984;1268;43972;-87
2023/04/14 09:51:10;;;;;;;20.30;16.40;;;;;;;10.90;100.00;99175.84;179602;1267;43850;-88
2023/04/14 09:55:15;;;;;;;25.30;19.70;;;;;;;11.07;100.00;99173.36;179730;1269;43884;-87
2023/04/14 09:59:48;;;;;;;22.70;16.60;;;;;;;11.20;100.00;99175.27;179786;1270;58373;-87
2023/04/14 10:03:53;;;;;;;24.60;18.50;;;;;;;11.42;100.00;99173.82;178814;1274;43916;-87
2023/04/14 10:08:02;;;;;;;27.00;21.70;;;;;;;11.55;100.00;99165.52;178796;1273;43894;-87
2023/04/14 10:12:06;;;;;;;27.60;21.10;;;;;;;11.64;100.00;99161.43;178970;1273;44163;-87
2023/04/14 10:16:12;;;;;;;33.40;22.90;;;;;;;11.74;100.00;99156.04;179077;1273;43962;-87
2023/04/14 10:20:16;;;;;;;28.50;21.80;;;;;;;11.84;100.00;99158.23;178994;1274;59028;-87
2023/04/14 10:24:20;;;;;;;27.10;21.00;;;;;;;11.93;100.00;99161.88;178821;1273;43818;-87
2023/04/14 10:28:25;;;;;;;31.70;23.20;;;;;;;12.07;100.00;99152.51;178811;1273;43981;-87
2023/04/14 10:32:34;;;;;;;31.80;24.30;;;;;;;12.15;100.00;99152.05;179057;1274;43932;-87
2023/04/14 10:36:38;;;;;;;35.10;26.30;;;;;;;12.22;100.00;99134.36;178895;1273;44205;-87
2023/04/14 10:40:51;;;;;;;33.10;26.30;;;;;;;12.33;100.00;99129.35;179538;1267;59772;-86
2023/04/14 10:45:09;;;;;;;35.40;25.90;;;;;;;12.35;100.00;99130.88;179971;1267;43766;-87
2023/04/14 10:49:12;;;;;;;38.30;28.80;;;;;;;12.43;100.00;99131.59;179954;1267;44100;-87
2023/04/14 10:53:15;;;;;;;41.90;30.70;;;;;;;12.52;99.93;99125.85;179991;1269;43914;-86
2023/04/14 10:57:23;;;;;;;34.50;28.00;;;;;;;12.56;99.91;99125.80;179532;1270;184278;-87
2023/04/14 11:01:31;;;;;;;38.60;30.90;;;;;;;12.59;99.62;99125.42;179895;1267;59749;-87
2023/04/14 11:05:40;;;;;;;43.20;31.70;;;;;;;12.49;99.63;99122.79;179689;1270;43895;-86
2023/04/14 11:09:44;;;;;;;43.20;30.40;;;;;;;12.27;99.90;99121.41;180064;1270;43725;-86
2023/04/14 11:14:10;;;;;;;50.20;35.30;;;;;;;12.20;100.00;99117.23;179797;1270;43757;-87
2023/04/14 11:18:28;;;;;;;42.40;30.30;;;;;;;12.15;100.00;99113.59;179776;1270;43848;-87
2023/04/14 11:22:44;;;;;;;42.10;32.90;;;;;;;12.21;100.00;99114.08;180050;1267;59666;-87
2023/04/14 11:26:51;;;;;;;45.30;35.20;;;;;;;12.25;100.00;99109.34;179535;1269;43877;-86
2023/04/14 11:30:57;;;;;;;38.80;29.00;;;;;;;12.23;100.00;99101.90;179930;1268;43816;-87
2023/04/14 11:35:05;;;;;;;;;;;;;;;12.25;100.00;99102.09;179902;1269;44016;-86
2023/04/14 11:39:14;;;;;;;46.40;35.50;;;;;;;12.30;100.00;99104.70;179818;1270;43644;-87
2023/04/14 11:43:17;;;;;;;42.90;29.50;;;;;;;12.30;100.00;99100.08;179869;1269;59600;-87
2023/04/14 11:47:24;;;;;;;42.60;32.80;;;;;;;12.34;100.00;99102.15;179680;1269;43841;-87
2023/04/14 11:51:29;;;;;;;46.50;35.70;;;;;;;12.36;100.00;99102.84;179669;1267;43930;-86
2023/04/14 11:55:33;;;;;;;42.50;32.10;;;;;;;12.30;100.00;99102.95;180151;1267;44034;-87
2023/04/14 11:59:44;;;;;;;47.20;33.00;;;;;;;12.32;100.00;99100.28;179919;1270;43840;-87
2023/04/14 12:03:48;;;;;;;51.90;34.00;;;;;;;12.32;100.00;99093.76;179929;1268;58278;-87
2023/04/14 12:07:58;;;;;;;44.70;34.90;;;;;;;12.26;100.00;99085.27;179752;1269;43917;-87
2023/04/14 12:12:08;;;;;;;47.70;33.80;;;;;;;12.25;100.00;99088.18;179606;1270;44296;-87
2023/04/14 12:16:12;;;;;;;51.50;38.70;;;;;;;12.30;100.00;99083.41;179751;1270;43990;-87
2023/04/14 12:20:16;;;;;;;47.50;34.70;;;;;;;12.34;100.00;99082.98;179477;1269;44532;-87
2023/04/14 12:24:20;;;;;;;52.20;37.30;;;;;;;12.38;100.00;99076.11;179794;1270;57901;-87
2023/04/14 12:28:26;;;;;;;47.20;37.40;;;;;;;12.44;100.00;99070.88;180001;1269;43819;-88
2023/04/14 12:32:39;;;;;;;52.40;34.00;;;;;;;12.51;100.00;99066.77;179596;1270;43976;-88
2023/04/14 12:36:51;;;;;;;44.90;35.80;;;;;;;12.55;100.00;99057.02;179945;1270;43985;-88
2023/04/14 12:40:55;;;;;;;53.10;39.00;;;;;;;12.59;100.00;99045.73;179792;1267;43833;-88
2023/04/14 12:45:01;;;;;;;46.60;33.30;;;;;;;12.62;100.00;99045.09;179845;1272;58602;-88
2023/04/14 12:49:05;;;;;;;50.60;38.00;;;;;;;12.63;100.00;99042.65;180106;1267;44176;-87
2023/04/14 12:53:28;;;;;;;52.80;37.40;;;;;;;12.55;100.00;99034.85;179898;1270;44039;-87
2023/04/14 12:57:32;;;;;;;47.60;34.10;;;;;;;12.40;100.00;99029.48;179767;1270;43856;-87
2023/04/14 13:01:36;;;;;;;63.10;44.60;;;;;;;12.27;100.00;99022.77;179562;1270;44232;-88
2023/04/14 13:05:40;;;;;;;47.40;35.40;;;;;;;12.12;100.00;99024.94;180156;1270;58479;-88
2023/04/14 13:09:44;;;;;;;51.00;38.00;;;;;;;12.08;100.00;99026.33;179837;1269;43892;-88
2023/04/14 13:13:47;;;;;;;49.00;35.60;;;;;;;12.12;100.00;99022.75;179954;1270;43916;-85
2023/04/14 13:17:51;;;;;;;54.20;39.10;;;;;;;12.07;100.00;99021.13;180047;1269;44189;-88
2023/04/14 13:21:55;;;;;;;52.90;40.20;;;;;;;12.08;100.00;99019.30;180020;1268;44421;-88
2023/04/14 13:30:18;;;;;;;55.90;40.90;;;;;;;12.01;100.00;99010.48;180094;1266;44202;-91
2023/04/14 13:34:26;;;;;;;53.60;41.40;;;;;;;12.05;100.00;99002.77;180652;1266;43872;-90
2023/04/14 13:38:32;;;;;;;57.10;44.10;;;;;;;12.12;100.00;98994.31;180495;1267;43882;-90
2023/04/14 13:42:36;;;;;;;54.40;42.30;;;;;;;12.10;100.00;98991.15;180603;1268;44113;-90
2023/04/14 13:46:40;;;;;;;58.30;41.40;;;;;;;12.03;100.00;98985.05;180618;1266;58908;-91
2023/04/14 13:50:44;;;;;;;53.90;41.70;;;;;;;11.95;100.00;98970.70;180273;1267;44151;-88
2023/04/14 13:54:47;;;;;;;55.30;39.20;;;;;;;11.92;100.00;98955.05;180128;1267;43988;-88
2023/04/14 13:58:51;;;;;;;52.20;39.80;;;;;;;11.83;100.00;98949.98;180060;1267;43809;-89
2023/04/14 14:02:55;;;;;;;58.10;41.90;;;;;;;11.76;100.00;98955.41;180068;1267;43896;-87
2023/04/14 14:06:59;;;;;;;60.10;42.90;;;;;;;11.76;100.00;98955.89;180427;1267;59576;-88
2023/04/14 14:11:04;;;;;;;52.90;41.30;;;;;;;11.82;100.00;98961.98;180497;1267;43875;-88
2023/04/14 14:15:09;;;;;;;50.80;42.20;;;;;;;11.80;100.00;98962.34;180231;1267;43893;-88
2023/04/14 14:19:14;;;;;;;56.10;42.30;;;;;;;11.82;100.00;98966.45;179901;1267;43961;-88
2023/04/14 14:23:19;;;;;;;55.20;44.20;;;;;;;11.82;100.00;98958.95;179883;1267;43776;-89
2023/04/14 14:27:24;;;;;;;55.40;41.00;;;;;;;11.93;100.00;98960.07;180198;1267;59298;-88
2023/04/14 14:31:27;;;;;;;60.80;46.60;;;;;;;12.00;100.00;98962.95;180055;1267;44100;-88
2023/04/14 14:35:31;;;;;;;55.10;44.20;;;;;;;11.89;100.00;98959.50;180198;1267;44543;-88
2023/04/14 14:39:35;;;;;;;60.90;44.80;;;;;;;11.85;100.00;98959.71;180300;1267;43883;-89
2023/04/14 14:43:40;;;;;;;53.40;42.40;;;;;;;11.86;100.00;98958.52;180098;1267;43942;-89
2023/04/14 14:47:44;;;;;;;56.90;41.30;;;;;;;11.92;100.00;98957.75;179993;1267;58694;-88
2023/04/14 14:51:48;;;;;;;58.90;42.10;;;;;;;11.86;100.00;98952.55;179935;1267;44141;-88
2023/04/14 14:55:51;;;;;;;48.60;35.50;;;;;;;11.85;100.00;98945.33;180313;1267;43915;-88
2023/04/14 14:59:55;;;;;;;55.40;40.50;;;;;;;11.78;100.00;98941.83;180171;1267;43926;-88
2023/04/14 15:03:59;;;;;;;53.70;41.60;;;;;;;11.73;100.00;98943.98;180121;1267;44013;-86
2023/04/14 15:08:04;;;;;;;51.80;38.50;;;;;;;11.68;100.00;98942.16;180171;1267;57327;-86
2023/04/14 15:12:07;;;;;;;61.00;46.90;;;;;;;11.66;100.00;98940.96;180472;1267;43966;-86
2023/04/14 15:16:11;;;;;;;48.20;37.90;;;;;;;11.73;100.00;98944.30;180122;1267;44158;-85
2023/04/14 15:20:15;;;;;;;48.90;38.90;;;;;;;11.85;100.00;98948.75;180273;1267;43863;-86
2023/04/14 15:24:19;;;;;;;56.10;42.40;;;;;;;11.80;100.00;98945.29;180362;1267;43848;-86
2023/04/14 15:28:23;;;;;;;52.20;40.20;;;;;;;11.81;100.00;98950.05;180176;1267;57316;-87
2023/04/14 15:32:26;;;;;;;63.90;45.70;;;;;;;11.89;100.00;98950.95;180102;1267;44088;-86
2023/04/14 15:36:30;;;;;;;58.60;38.40;;;;;;;11.94;100.00;98957.55;180238;1266;44053;-87
2023/04/14 15:40:36;;;;;;;57.50;42.50;;;;;;;12.00;100.00;98962.92;180140;1267;44163;-86
2023/04/14 15:44:40;;;;;;;47.80;36.80;;;;;;;12.01;100.00;98962.65;180187;1267;43876;-88
2023/04/14 15:48:45;;;;;;;55.70;40.30;;;;;;;11.93;100.00;98962.25;180303;1267;59472;-89
2023/04/14 15:57:47;;;;;;;62.60;48.40;;;;;;;11.52;100.00;98961.34;180313;1260;45044;31
2023/04/14 16:06:58;;;;;;;64.70;46.70;;;;;;;11.51;100.00;98956.06;179161;1260;45629;31
2023/04/14 16:21:55;;;;;;;56.80;45.60;;;;;;;11.48;100.00;98959.98;179050;1270;48995;-92
2023/04/14 16:26:16;;;;;;;60.70;48.20;;;;;;;11.43;100.00;98961.88;180271;1263;44492;-87
2023/04/14 16:30:20;;;;;;;63.70;48.60;;;;;;;11.41;100.00;98954.70;180135;1267;44097;-86
2023/04/14 16:34:23;;;;;;;61.10;49.10;;;;;;;11.36;100.00;98953.95;179747;1267;57353;-87
2023/04/14 16:38:27;;;;;;;60.10;42.80;;;;;;;11.41;100.00;98944.70;179827;1267;44052;-87
2023/04/14 16:42:30;;;;;;;66.70;48.90;;;;;;;11.36;100.00;98950.36;180023;1267;43814;-87
2023/04/14 16:46:34;;;;;;;68.40;48.70;;;;;;;11.21;100.00;98942.40;180112;1267;44125;-86
2023/04/14 16:50:39;;;;;;;80.50;55.20;;;;;;;11.09;100.00;98934.73;179964;1267;43862;-87
2023/04/14 16:54:42;;;;;;;68.90;47.70;;;;;;;11.00;100.00;98936.09;179705;1269;57777;-86
2023/04/14 16:58:46;;;;;;;81.70;55.60;;;;;;;10.99;100.00;98944.99;179682;1270;44347;-87
2023/04/14 17:02:50;;;;;;;64.80;50.50;;;;;;;10.95;100.00;98946.48;179741;1269;44025;-86
2023/04/14 17:06:54;;;;;;;69.50;51.30;;;;;;;11.03;100.00;98951.70;179708;1270;44088;-87
2023/04/14 17:10:57;;;;;;;69.50;48.60;;;;;;;11.07;100.00;98952.34;179788;1269;44461;-87
2023/04/14 17:15:02;;;;;;;80.90;55.30;;;;;;;11.07;100.00;98944.77;179718;1269;58945;-87
2023/04/14 17:19:05;;;;;;;67.40;53.20;;;;;;;11.07;100.00;98950.45;179872;1269;43822;-87
2023/04/14 17:23:09;;;;;;;70.10;52.60;;;;;;;11.04;100.00;98958.70;179665;1269;44306;-88
2023/04/14 17:27:12;;;;;;;66.30;47.40;;;;;;;11.07;100.00;98963.32;179777;1269;44933;-88
2023/04/14 17:31:21;;;;;;;64.20;49.40;;;;;;;11.06;100.00;98968.27;179927;1261;43825;-84
2023/04/14 17:35:26;;;;;;;68.60;46.60;;;;;;;10.99;100.00;98968.24;180401;1267;59567;-86
2023/04/14 17:39:30;;;;;;;67.70;45.90;;;;;;;10.97;100.00;98970.40;180558;1267;48196;-88
2023/04/14 17:43:37;;;;;;;66.80;49.00;;;;;;;11.05;100.00;98959.86;180571;1267;43934;-89
2023/04/14 17:47:40;;;;;;;68.00;50.10;;;;;;;11.16;100.00;98967.41;180559;1267;44010;-85
2023/04/14 17:51:53;;;;;;;68.40;47.90;;;;;;;11.24;100.00;98969.95;180624;1260;44331;31
2023/04/14 17:55:57;;;;;;;59.80;42.50;;;;;;;11.27;100.00;98967.44;180643;1267;59287;-85
2023/04/14 18:00:02;;;;;;;61.80;47.40;;;;;;;11.34;100.00;98960.06;180604;1264;44192;-87
2023/04/14 18:04:06;;;;;;;60.50;45.00;;;;;;;11.34;100.00;98955.54;180742;1264;54670;-87
2023/04/14 18:08:26;;;;;;;65.40;46.70;;;;;;;11.36;100.00;98954.27;180708;1259;44231;31
2023/04/14 18:12:30;;;;;;;53.40;43.20;;;;;;;11.24;100.00;98964.90;180466;1261;44077;-83
2023/04/14 18:16:36;;;;;;;66.90;47.50;;;;;;;11.22;100.00;98963.54;180616;1266;60109;-82
2023/04/14 18:20:44;;;;;;;64.30;45.70;;;;;;;11.19;100.00;98966.34;180346;1263;44133;-83
2023/04/14 18:24:47;;;;;;;65.90;46.70;;;;;;;11.20;100.00;98969.33;180237;1267;43898;-86
2023/04/14 18:28:50;;;;;;;58.60;46.60;;;;;;;11.18;100.00;98963.83;180350;1267;44029;-87
2023/04/14 18:32:54;;;;;;;70.00;49.40;;;;;;;11.10;100.00;98965.87;180422;1267;43852;-84
2023/04/14 18:36:57;;;;;;;58.30;45.90;;;;;;;11.08;100.00;98964.33;180072;1267;59271;-87
2023/04/14 18:41:02;;;;;;;82.20;51.50;;;;;;;11.06;100.00;98956.94;180248;1267;44001;-87
2023/04/14 18:45:07;;;;;;;63.20;48.70;;;;;;;11.03;100.00;98946.05;180095;1267;44046;-88
2023/04/14 18:49:10;;;;;;;66.20;49.20;;;;;;;10.97;100.00;98936.69;180069;1267;44413;-88
2023/04/14 18:53:13;;;;;;;64.30;46.70;;;;;;;10.91;100.00;98927.42;180194;1267;44519;-89
2023/04/14 18:57:17;;;;;;;61.20;45.00;;;;;;;10.80;100.00;98928.21;180172;1267;60853;-88
2023/04/14 19:01:20;;;;;;;70.90;47.70;;;;;;;10.71;100.00;98931.77;180150;1269;44127;-88
2023/04/14 19:05:24;;;;;;;72.90;50.80;;;;;;;10.68;100.00;98942.33;180352;1267;43764;-85
2023/04/14 19:09:28;;;;;;;58.50;45.20;;;;;;;10.72;100.00;98956.71;180297;1267;43760;-89
2023/04/14 19:13:31;;;;;;;61.60;47.70;;;;;;;10.79;100.00;98955.21;180155;1267;43785;-88
2023/04/14 19:17:35;;;;;;;57.00;45.50;;;;;;;10.86;100.00;98957.73;180282;1267;58341;-88
2023/04/14 19:21:39;;;;;;;58.30;43.30;;;;;;;10.94;100.00;98969.66;180074;1267;44175;-82
2023/04/14 19:25:43;;;;;;;52.10;41.20;;;;;;;11.02;100.00;98974.52;180079;1267;44170;-85
2023/04/14 19:29:46;;;;;;;61.70;47.20;;;;;;;11.10;100.00;98988.45;179882;1270;44298;-85
2023/04/14 19:33:49;;;;;;;51.50;39.40;;;;;;;11.17;100.00;98983.97;180042;1269;44064;-87
2023/04/14 19:37:55;;;;;;;58.20;45.20;;;;;;;11.27;100.00;98976.02;180303;1268;58332;-89
2023/04/14 19:41:58;;;;;;;50.30;37.10;;;;;;;11.30;100.00;98979.19;180199;1269;43807;-88
2023/04/14 19:46:03;;;;;;;58.80;43.50;;;;;;;11.28;100.00;98968.61;180181;1269;44088;-86
2023/04/14 19:50:07;;;;;;;57.20;41.90;;;;;;;11.11;100.00;98970.05;180095;1267;43836;-87
2023/04/14 19:54:11;;;;;;;60.60;40.70;;;;;;;10.96;100.00;98960.41;180163;1269;44072;-86
2023/04/14 19:58:14;;;;;;;60.90;40.90;;;;;;;10.93;100.00;98965.50;179991;1267;60769;-88
2023/04/14 20:02:17;;;;;;;53.60;42.10;;;;;;;10.91;100.00;98961.23;179965;1270;44211;-89